Погода Толейнына неделю

Варминско-Мазурское воеводство, Польша

18 - 24 июля
  • 18июля
    Сегодня
    +14°
    +23°
    Облачно с прояснениями
    ВремяПогодаТемператураВлажностьДавлениеВетер, м/сВероятность осадков
    02:00Ясно и безоблачно+17°C89 %755 мм1.6 м/с2 %
    05:00Облачно с прояснениями+16°C89 %755 мм2.0 м/с2 %
    08:00Ясно и безоблачно+19°C76 %756 мм3.2 м/с3 %
    11:00Практически безоблачно+21°C62 %756 мм4.9 м/с18 %
    14:00Облачно с прояснениями+22°C57 %756 мм4.8 м/с15 %
    17:00Небольшая облачность+23°C56 %756 мм4.6 м/с6 %
    20:00Практически безоблачно+21°C62 %756 мм3.4 м/с2 %
    23:00Облачно с прояснениями+16°C89 %757 мм1.8 м/с2 %
  • 19июля
    Пятница
    +13°
    +25°
    Облачно с прояснениями
    ВремяПогодаТемператураВлажностьДавлениеВетер, м/сВероятность осадков
    02:00Практически безоблачно+15°C91 %757 мм2.3 м/с2 %
    05:00Ясно и безоблачно+14°C94 %757 мм2.2 м/с2 %
    08:00Ясно и безоблачно+18°C77 %757 мм2.4 м/с2 %
    11:00Небольшая облачность+21°C56 %757 мм4.0 м/с2 %
    14:00Облачно с прояснениями+23°C47 %756 мм3.5 м/с2 %
    17:00Ясно и безоблачно+24°C47 %755 мм3.4 м/с2 %
    20:00Ясно и безоблачно+21°C62 %754 мм1.9 м/с2 %
    23:00Ясно и безоблачно+17°C88 %754 мм2.0 м/с2 %
  • 20июля
    Суббота
    +13°
    +26°
    Практически безоблачно
    ВремяПогодаТемператураВлажностьДавлениеВетер, м/сВероятность осадков
    02:00Облачно с прояснениями+15°C92 %753 мм1.4 м/с2 %
    05:00Ясно и безоблачно+13°C96 %753 мм1.3 м/с2 %
    08:00Ясно и безоблачно+19°C75 %752 мм0.9 м/с2 %
    11:00Ясно и безоблачно+22°C56 %752 мм2.5 м/с2 %
    14:00Практически безоблачно+25°C43 %751 мм2.4 м/с2 %
    17:00Ясно и безоблачно+26°C37 %750 мм2.3 м/с2 %
    20:00Ясно и безоблачно+22°C59 %750 мм2.6 м/с2 %
    23:00Ясно и безоблачно+17°C83 %750 мм2.1 м/с2 %
  • 21июля
    Воскресенье
    +16°
    +28°
    Ясно и безоблачно
    ВремяПогодаТемператураВлажностьДавлениеВетер, м/сВероятность осадков
    02:00Ясно и безоблачно+16°C91 %749 мм1.8 м/с2 %
    05:00Ясно и безоблачно+14°C96 %749 мм1.7 м/с2 %
    08:00Ясно и безоблачно+21°C71 %749 мм0.7 м/с2 %
    11:00Ясно и безоблачно+24°C49 %748 мм0.6 м/с2 %
    14:00Ясно и безоблачно+26°C43 %748 мм0.8 м/с2 %
    17:00Практически безоблачно+28°C39 %747 мм1.8 м/с2 %
    20:00Ясно и безоблачно+24°C57 %747 мм1.8 м/с2 %
    23:00Ясно и безоблачно+19°C73 %747 мм2.5 м/с2 %
  • 22июля
    Понедельник
    +14°
    +27°
    Облачно с прояснениями
    ВремяПогодаТемператураВлажностьДавлениеВетер, м/сВероятность осадков
    02:00Ясно и безоблачно+18°C79 %747 мм2.4 м/с2 %
    05:00Ясно и безоблачно+17°C88 %747 мм1.7 м/с2 %
    08:00Ясно и безоблачно+22°C68 %747 мм1.4 м/с4 %
    11:00Небольшая облачность+25°C42 %747 мм1.4 м/с7 %
    14:00Облачно с прояснениями+27°C35 %746 мм2.0 м/с26 %
    17:00Пасмурно, сплошная облачность+23°C66 %747 мм5.8 м/с33 %
    20:00Пасмурно, ливень+22°C85 %748 мм3.2 м/с37 %
    23:00Пасмурно, дождь+18°C95 %749 мм4.5 м/с30 %
Мы используем cookies
Соглашаюсь